createdAt,value
2018-04-16T00:00:21.310Z,0
2018-04-16T00:01:08.241Z,0
2018-04-16T00:02:07.921Z,0
2018-04-16T00:03:08.032Z,0
2018-04-16T00:04:08.426Z,0
2018-04-16T00:05:09.181Z,0
2018-04-16T00:06:09.573Z,0
2018-04-16T00:07:09.437Z,0
2018-04-16T00:08:09.598Z,0
2018-04-16T00:09:10.365Z,0
2018-04-16T00:10:09.533Z,0
2018-04-16T00:11:09.748Z,0
2018-04-16T00:12:09.930Z,0
2018-04-16T00:13:10.355Z,0
2018-04-16T00:14:10.133Z,0
2018-04-16T00:15:10.162Z,0
2018-04-16T00:16:10.591Z,0
2018-04-16T00:17:10.523Z,0
2018-04-16T00:18:10.877Z,0
2018-04-16T00:19:10.646Z,0
2018-04-16T00:20:10.596Z,0
2018-04-16T00:21:11.602Z,0
2018-04-16T00:22:11.110Z,0
2018-04-16T00:23:11.501Z,0
2018-04-16T00:24:11.669Z,0
2018-04-16T00:25:12.157Z,0
2018-04-16T00:26:12.569Z,0
2018-04-16T00:27:13.222Z,0
2018-04-16T00:28:13.134Z,0
2018-04-16T00:29:13.810Z,0
2018-04-16T00:30:14.211Z,0
2018-04-16T00:31:14.259Z,0
2018-04-16T00:32:14.239Z,0
2018-04-16T00:33:14.873Z,0
2018-04-16T00:34:14.637Z,0
2018-04-16T00:35:15.094Z,0
2018-04-16T00:36:15.276Z,0
2018-04-16T00:37:15.248Z,0
2018-04-16T00:38:15.682Z,0
2018-04-16T00:39:16.407Z,0
2018-04-16T00:40:16.223Z,0
2018-04-16T00:41:16.150Z,0
2018-04-16T00:42:15.196Z,0
2018-04-16T00:43:15.632Z,0
2018-04-16T00:44:16.054Z,0
2018-04-16T00:45:16.069Z,0
2018-04-16T00:46:16.240Z,0
2018-04-16T00:47:16.664Z,0
2018-04-16T00:48:17.237Z,0
2018-04-16T00:49:17.668Z,0
2018-04-16T00:50:17.865Z,0
2018-04-16T00:51:17.877Z,0
2018-04-16T00:52:17.687Z,0
2018-04-16T00:53:17.799Z,0
2018-04-16T00:54:18.226Z,0
2018-04-16T00:55:17.778Z,0
2018-04-16T00:56:18.064Z,0
2018-04-16T00:57:18.468Z,0
2018-04-16T00:58:18.829Z,0
2018-04-16T00:59:18.618Z,0
2018-04-16T01:00:19.619Z,0
2018-04-16T01:01:20.019Z,0
2018-04-16T01:02:20.430Z,0
2018-04-16T01:03:20.430Z,0
2018-04-16T01:04:20.460Z,0
2018-04-16T01:05:20.840Z,0
2018-04-16T01:06:20.405Z,0
2018-04-16T01:07:21.089Z,0
2018-04-16T01:08:20.854Z,0
2018-04-16T01:09:21.004Z,0
2018-04-16T01:10:21.849Z,0
2018-04-16T01:11:21.401Z,0
2018-04-16T01:12:21.712Z,0
2018-04-16T01:13:21.461Z,0
2018-04-16T01:14:21.694Z,0
2018-04-16T01:15:21.727Z,0
2018-04-16T01:16:22.060Z,0
2018-04-16T01:17:21.982Z,0
2018-04-16T01:18:21.798Z,0
2018-04-16T01:19:22.050Z,0
2018-04-16T01:20:22.801Z,0
2018-04-16T01:21:22.652Z,0
2018-04-16T01:22:22.832Z,0
2018-04-16T01:23:23.238Z,0
2018-04-16T01:24:23.916Z,0
2018-04-16T01:25:24.028Z,0
2018-04-16T01:26:23.699Z,0
2018-04-16T01:27:23.651Z,0
2018-04-16T01:28:24.268Z,0
2018-04-16T01:29:24.923Z,0
2018-04-16T01:30:25.062Z,0
2018-04-16T01:31:25.094Z,0
2018-04-16T01:32:25.465Z,0
2018-04-16T01:33:25.873Z,0
2018-04-16T01:34:25.640Z,0
2018-04-16T01:35:25.924Z,0
2018-04-16T01:36:26.076Z,0
2018-04-16T01:37:26.081Z,0
2018-04-16T01:38:26.140Z,0
2018-04-16T01:39:26.257Z,0
2018-04-16T01:40:26.373Z,0
2018-04-16T01:41:26.215Z,0
2018-04-16T01:42:27.075Z,0
2018-04-16T01:43:27.324Z,0
2018-04-16T01:44:27.502Z,0
2018-04-16T01:45:27.949Z,0
2018-04-16T01:46:28.412Z,0
2018-04-16T01:47:28.395Z,0
2018-04-16T01:48:29.077Z,0
2018-04-16T01:49:29.164Z,0
2018-04-16T01:50:28.713Z,0
2018-04-16T01:51:29.409Z,0
2018-04-16T01:52:29.508Z,0
2018-04-16T01:53:29.640Z,0
2018-04-16T01:54:30.032Z,0
2018-04-16T01:55:30.490Z,0
2018-04-16T01:56:29.956Z,0
2018-04-16T01:57:30.506Z,0
2018-04-16T01:58:30.544Z,0
2018-04-16T01:59:30.050Z,0
2018-04-16T02:00:39.883Z,0
2018-04-16T02:01:40.276Z,0
2018-04-16T02:02:39.959Z,0
2018-04-16T02:03:40.192Z,0
2018-04-16T02:04:40.988Z,0
2018-04-16T02:05:40.755Z,0
2018-04-16T02:06:41.079Z,0
2018-04-16T02:07:40.988Z,0
2018-04-16T02:08:41.392Z,0
2018-04-16T02:09:41.578Z,0
2018-04-16T02:10:41.945Z,0
2018-04-16T02:11:42.008Z,0
2018-04-16T02:12:42.540Z,0
2018-04-16T02:13:42.345Z,0
2018-04-16T02:14:42.887Z,0
2018-04-16T02:15:42.607Z,0
2018-04-16T02:16:42.710Z,0
2018-04-16T02:17:43.108Z,0
2018-04-16T02:18:43.489Z,0
2018-04-16T02:19:43.256Z,0
2018-04-16T02:20:43.012Z,0
2018-04-16T02:21:43.810Z,0
2018-04-16T02:22:43.687Z,0
2018-04-16T02:23:43.466Z,0
2018-04-16T02:24:43.283Z,0
2018-04-16T02:25:43.523Z,0
2018-04-16T02:26:43.841Z,0
2018-04-16T02:27:44.016Z,0
2018-04-16T02:28:44.071Z,0
2018-04-16T02:29:43.831Z,0
2018-04-16T02:30:44.644Z,0
2018-04-16T02:31:44.325Z,0
2018-04-16T02:32:44.434Z,0
2018-04-16T02:33:44.492Z,0
2018-04-16T02:34:44.513Z,0
2018-04-16T02:35:45.134Z,0
2018-04-16T02:36:45.380Z,0
2018-04-16T02:37:45.785Z,0
2018-04-16T02:38:45.387Z,0
2018-04-16T02:39:46.526Z,0
2018-04-16T02:40:46.306Z,0
2018-04-16T02:41:45.818Z,0
2018-04-16T02:42:47.324Z,0
2018-04-16T02:43:46.775Z,0
2018-04-16T02:44:46.181Z,0
2018-04-16T02:45:46.426Z,0
2018-04-16T02:46:46.569Z,0
2018-04-16T02:47:46.993Z,0
2018-04-16T02:48:47.767Z,0
2018-04-16T02:49:47.031Z,0
2018-04-16T02:50:46.865Z,0
2018-04-16T02:51:46.910Z,0
2018-04-16T02:52:46.355Z,0
2018-04-16T02:53:47.079Z,0
2018-04-16T02:54:47.145Z,0
2018-04-16T02:55:47.517Z,0
2018-04-16T02:56:47.090Z,0
2018-04-16T02:57:47.523Z,0
2018-04-16T02:58:47.269Z,0
2018-04-16T02:59:47.755Z,0
2018-04-16T03:00:47.988Z,0
2018-04-16T03:01:48.052Z,0
2018-04-16T03:02:48.266Z,0
2018-04-16T03:03:47.986Z,0
2018-04-16T03:04:48.310Z,0
2018-04-16T03:05:48.381Z,0
2018-04-16T03:06:48.374Z,0
2018-04-16T03:07:48.500Z,0
2018-04-16T03:08:49.102Z,0
2018-04-16T03:09:48.464Z,0
2018-04-16T03:10:48.729Z,0
2018-04-16T03:11:49.160Z,0
2018-04-16T03:12:48.993Z,0
2018-04-16T03:13:49.446Z,0
2018-04-16T03:14:49.539Z,0
2018-04-16T03:15:49.465Z,0
2018-04-16T03:16:49.979Z,0
2018-04-16T03:17:49.841Z,0
2018-04-16T03:18:50.495Z,0
2018-04-16T03:19:50.678Z,0
2018-04-16T03:20:49.927Z,0
2018-04-16T03:21:50.456Z,0
2018-04-16T03:22:50.921Z,0
2018-04-16T03:23:50.930Z,0
2018-04-16T03:24:51.045Z,0
2018-04-16T03:25:50.989Z,0
2018-04-16T03:26:51.225Z,0
2018-04-16T03:27:51.654Z,0
2018-04-16T03:28:51.659Z,0
2018-04-16T03:29:52.113Z,0
2018-04-16T03:30:52.056Z,0
2018-04-16T03:31:52.123Z,0
2018-04-16T03:32:52.362Z,0
2018-04-16T03:33:53.076Z,0
2018-04-16T03:34:52.860Z,0
2018-04-16T03:35:53.112Z,0
2018-04-16T03:36:53.149Z,0
2018-04-16T03:37:53.034Z,0
2018-04-16T03:38:53.621Z,0
2018-04-16T03:39:53.374Z,0
2018-04-16T03:40:53.805Z,0
2018-04-16T03:41:54.236Z,0
2018-04-16T03:42:53.565Z,0
2018-04-16T03:43:54.026Z,0
2018-04-16T03:44:54.219Z,0
2018-04-16T03:45:54.237Z,0
2018-04-16T03:46:54.936Z,0
2018-04-16T03:47:54.969Z,0
2018-04-16T03:48:55.171Z,0
2018-04-16T03:49:54.909Z,0
2018-04-16T03:50:55.095Z,0
2018-04-16T03:51:55.728Z,0
2018-04-16T03:52:55.233Z,4
2018-04-16T03:53:55.602Z,4
2018-04-16T03:54:56.100Z,0
2018-04-16T03:55:56.067Z,0
2018-04-16T03:56:56.738Z,4
2018-04-16T03:57:56.913Z,4
2018-04-16T03:58:56.902Z,4
2018-04-16T03:59:56.933Z,8
2018-04-16T04:00:56.931Z,4
2018-04-16T04:01:56.436Z,4
2018-04-16T04:02:56.810Z,8
2018-04-16T04:03:56.705Z,8
2018-04-16T04:04:57.253Z,8
2018-04-16T04:05:57.217Z,8
2018-04-16T04:06:56.718Z,12
2018-04-16T04:07:57.127Z,12
2018-04-16T04:08:57.759Z,8
2018-04-16T04:09:57.725Z,8
2018-04-16T04:10:58.016Z,12
2018-04-16T04:11:58.417Z,12
2018-04-16T04:12:58.968Z,12
2018-04-16T04:13:58.485Z,12
2018-04-16T04:14:58.888Z,12
2018-04-16T04:15:58.761Z,12
2018-04-16T04:16:59.190Z,16
2018-04-16T04:17:59.448Z,16
2018-04-16T04:18:59.223Z,20
2018-04-16T04:19:58.984Z,16
2018-04-16T04:21:00.083Z,20
2018-04-16T04:21:59.649Z,20
2018-04-16T04:23:00.949Z,20
2018-04-16T04:24:00.276Z,20
2018-04-16T04:25:00.626Z,24
2018-04-16T04:26:00.234Z,24
2018-04-16T04:27:00.363Z,32
2018-04-16T04:28:00.508Z,32
2018-04-16T04:29:01.159Z,36
2018-04-16T04:30:01.327Z,44
2018-04-16T04:31:01.739Z,44
2018-04-16T04:32:02.122Z,48
2018-04-16T04:33:02.229Z,48
2018-04-16T04:34:02.523Z,48
2018-04-16T04:35:02.584Z,48
2018-04-16T04:36:02.773Z,44
2018-04-16T04:37:02.449Z,48
2018-04-16T04:38:02.369Z,44
2018-04-16T04:39:02.959Z,40
2018-04-16T04:40:02.704Z,44
2018-04-16T04:41:02.423Z,44
2018-04-16T04:42:02.698Z,48
2018-04-16T04:43:02.737Z,48
2018-04-16T04:44:03.144Z,52
2018-04-16T04:45:03.059Z,56
2018-04-16T04:46:03.616Z,64
2018-04-16T04:47:03.432Z,72
2018-04-16T04:48:03.570Z,80
2018-04-16T04:49:03.999Z,80
2018-04-16T04:50:04.091Z,84
2018-04-16T04:51:04.593Z,80
2018-04-16T04:52:04.317Z,80
2018-04-16T04:53:04.889Z,84
2018-04-16T04:54:04.347Z,84
2018-04-16T04:55:04.349Z,92
2018-04-16T04:56:04.660Z,96
2018-04-16T04:57:05.492Z,100
2018-04-16T04:58:05.326Z,100
2018-04-16T04:59:05.377Z,108
2018-04-16T05:00:18.545Z,112
2018-04-16T05:01:05.958Z,116
2018-04-16T05:02:05.965Z,120
2018-04-16T05:03:05.172Z,124
2018-04-16T05:04:06.068Z,132
2018-04-16T05:05:05.825Z,136
2018-04-16T05:06:06.081Z,140
2018-04-16T05:07:06.214Z,152
2018-04-16T05:08:06.143Z,160
2018-04-16T05:09:06.242Z,168
2018-04-16T05:10:06.471Z,172
2018-04-16T05:11:05.798Z,172
2018-04-16T05:12:06.332Z,168
2018-04-16T05:13:06.361Z,160
2018-04-16T05:14:06.580Z,156
2018-04-16T05:15:06.928Z,152
2018-04-16T05:16:06.905Z,156
2018-04-16T05:17:07.206Z,164
2018-04-16T05:18:07.042Z,172
2018-04-16T05:19:07.362Z,180
2018-04-16T05:20:07.618Z,192
2018-04-16T05:21:07.400Z,200
2018-04-16T05:22:07.673Z,200
2018-04-16T05:23:07.937Z,200
2018-04-16T05:24:08.470Z,200
2018-04-16T05:25:08.587Z,204
2018-04-16T05:26:08.223Z,204
2018-04-16T05:27:08.257Z,204
2018-04-16T05:28:08.588Z,200
2018-04-16T05:29:08.910Z,200
2018-04-16T05:30:08.656Z,200
2018-04-16T05:31:09.019Z,204
2018-04-16T05:32:08.788Z,212
2018-04-16T05:33:09.116Z,220
2018-04-16T05:34:08.835Z,232
2018-04-16T05:35:09.185Z,244
2018-04-16T05:36:08.929Z,256
2018-04-16T05:37:09.424Z,272
2018-04-16T05:38:09.636Z,280
2018-04-16T05:39:09.694Z,292
2018-04-16T05:40:09.966Z,304
2018-04-16T05:41:09.731Z,316
2018-04-16T05:42:09.764Z,324
2018-04-16T05:43:09.600Z,332
2018-04-16T05:44:09.877Z,336
2018-04-16T05:45:11.265Z,336
2018-04-16T05:46:10.339Z,336
2018-04-16T05:47:10.902Z,328
2018-04-16T05:48:11.014Z,332
2018-04-16T05:49:10.384Z,336
2018-04-16T05:50:10.997Z,348
2018-04-16T05:51:10.700Z,368
2018-04-16T05:52:10.494Z,392
2018-04-16T05:53:11.320Z,416
2018-04-16T05:54:10.850Z,444
2018-04-16T05:55:11.252Z,476
2018-04-16T05:56:11.225Z,512
2018-04-16T05:57:11.029Z,548
2018-04-16T05:58:11.454Z,580
2018-04-16T05:59:11.089Z,608
2018-04-16T06:00:17.611Z,640
2018-04-16T06:01:11.739Z,680
2018-04-16T06:02:12.259Z,732
2018-04-16T06:03:11.219Z,776
2018-04-16T06:04:11.492Z,796
2018-04-16T06:05:11.845Z,800
2018-04-16T06:06:11.352Z,784
2018-04-16T06:07:11.552Z,764
2018-04-16T06:08:11.954Z,748
2018-04-16T06:09:12.138Z,748
2018-04-16T06:10:12.084Z,764
2018-04-16T06:11:12.870Z,792
2018-04-16T06:12:13.269Z,836
2018-04-16T06:13:12.672Z,876
2018-04-16T06:14:12.632Z,900
2018-04-16T06:15:12.930Z,896
2018-04-16T06:16:12.623Z,888
2018-04-16T06:17:12.765Z,884
2018-04-16T06:18:12.991Z,880
2018-04-16T06:19:13.543Z,864
2018-04-16T06:20:13.054Z,840
2018-04-16T06:21:13.468Z,808
2018-04-16T06:22:13.203Z,784
2018-04-16T06:23:14.259Z,768
2018-04-16T06:24:14.235Z,760
2018-04-16T06:25:15.808Z,756
2018-04-16T06:26:16.639Z,760
2018-04-16T06:27:16.336Z,764
2018-04-16T06:28:15.973Z,764
2018-04-16T06:29:16.132Z,752
2018-04-16T06:30:16.569Z,740
2018-04-16T06:31:15.932Z,744
2018-04-16T06:32:15.829Z,764
2018-04-16T06:33:15.957Z,776
2018-04-16T06:34:14.802Z,760
2018-04-16T06:35:16.485Z,716
2018-04-16T06:36:15.122Z,672
2018-04-16T06:37:15.092Z,628
2018-04-16T06:38:15.388Z,596
2018-04-16T06:39:15.277Z,560
2018-04-16T06:40:15.241Z,524
2018-04-16T06:41:15.426Z,508
2018-04-16T06:42:15.365Z,504
2018-04-16T06:43:15.172Z,516
2018-04-16T06:44:14.838Z,524
2018-04-16T06:45:15.312Z,512
2018-04-16T06:46:15.293Z,508
2018-04-16T06:47:15.513Z,528
2018-04-16T06:48:15.227Z,560
2018-04-16T06:49:14.742Z,572
2018-04-16T06:50:15.088Z,604
2018-04-16T06:51:15.424Z,668
2018-04-16T06:52:15.461Z,720
2018-04-16T06:53:15.267Z,772
2018-04-16T06:54:16.044Z,812
2018-04-16T06:55:15.782Z,816
2018-04-16T06:56:15.549Z,800
2018-04-16T06:57:15.323Z,844
2018-04-16T06:58:15.553Z,888
2018-04-16T06:59:16.183Z,908
2018-04-16T07:00:15.808Z,944
2018-04-16T07:01:16.495Z,996
2018-04-16T07:02:16.091Z,1020
2018-04-16T07:03:17.090Z,1024
2018-04-16T07:04:17.073Z,1028
2018-04-16T07:05:17.308Z,1028
2018-04-16T07:06:17.765Z,1020
2018-04-16T07:07:17.919Z,1016
2018-04-16T07:08:18.019Z,1012
2018-04-16T07:09:17.918Z,1004
2018-04-16T07:10:18.428Z,992
2018-04-16T07:11:18.825Z,976
2018-04-16T07:12:18.714Z,960
2018-04-16T07:13:18.748Z,960
2018-04-16T07:14:18.842Z,956
2018-04-16T07:15:19.221Z,956
2018-04-16T07:16:18.969Z,960
2018-04-16T07:17:19.150Z,968
2018-04-16T07:18:19.262Z,976
2018-04-16T07:19:19.922Z,984
2018-04-16T07:20:19.640Z,984
2018-04-16T07:21:19.856Z,984
2018-04-16T07:22:19.936Z,980
2018-04-16T07:23:20.278Z,980
2018-04-16T07:24:20.744Z,980
2018-04-16T07:25:20.354Z,996
2018-04-16T07:26:20.532Z,1016
2018-04-16T07:27:20.471Z,1044
2018-04-16T07:28:20.282Z,1076
2018-04-16T07:29:21.028Z,1104
2018-04-16T07:30:20.929Z,1128
2018-04-16T07:31:21.683Z,1144
2018-04-16T07:32:21.847Z,1144
2018-04-16T07:33:21.730Z,1148
2018-04-16T07:34:22.183Z,1156
2018-04-16T07:35:22.098Z,1176
2018-04-16T07:36:23.264Z,1200
2018-04-16T07:37:22.680Z,1232
2018-04-16T07:38:23.245Z,1280
2018-04-16T07:39:22.889Z,1308
2018-04-16T07:40:23.304Z,1336
2018-04-16T07:41:23.041Z,1368
2018-04-16T07:42:23.480Z,1372
2018-04-16T07:43:23.493Z,1352
2018-04-16T07:44:23.439Z,1428
2018-04-16T07:45:23.867Z,1368
2018-04-16T07:46:24.049Z,1456
2018-04-16T07:47:24.219Z,1480
2018-04-16T07:48:24.237Z,1384
2018-04-16T07:49:24.435Z,1492
2018-04-16T07:50:24.879Z,1492
2018-04-16T07:51:24.914Z,1428
2018-04-16T07:52:25.315Z,1400
2018-04-16T07:53:25.513Z,1416
2018-04-16T07:54:26.100Z,1392
2018-04-16T07:55:26.311Z,1380
2018-04-16T07:56:25.849Z,1372
2018-04-16T07:57:26.350Z,1332
2018-04-16T07:58:27.476Z,1308
2018-04-16T07:59:26.866Z,1372
2018-04-16T08:00:26.830Z,1340
2018-04-16T08:01:27.004Z,1352
2018-04-16T08:02:26.891Z,1340
2018-04-16T08:03:26.693Z,1304
2018-04-16T08:04:26.924Z,1284
2018-04-16T08:05:27.563Z,1392
2018-04-16T08:06:27.739Z,1344
2018-04-16T08:07:27.634Z,1432
2018-04-16T08:08:27.658Z,1472
2018-04-16T08:09:27.205Z,1460
2018-04-16T08:10:27.948Z,1432
2018-04-16T08:11:27.772Z,1320
2018-04-16T08:12:27.750Z,1244
2018-04-16T08:13:27.882Z,1156
2018-04-16T08:14:28.525Z,1104
2018-04-16T08:15:28.134Z,1092
2018-04-16T08:16:28.124Z,1120
2018-04-16T08:17:28.164Z,1208
2018-04-16T08:18:29.347Z,1320
2018-04-16T08:19:28.959Z,1372
2018-04-16T08:20:29.012Z,1420
2018-04-16T08:21:28.713Z,1452
2018-04-16T08:22:29.144Z,1464
2018-04-16T08:23:28.921Z,1504
2018-04-16T08:24:29.200Z,1524
2018-04-16T08:25:29.265Z,1588
2018-04-16T08:26:29.643Z,1724
2018-04-16T08:27:29.450Z,1756
2018-04-16T08:28:29.585Z,1820
2018-04-16T08:29:29.565Z,1872
2018-04-16T08:30:30.234Z,1892
2018-04-16T08:31:30.009Z,1856
2018-04-16T08:32:30.180Z,1836
2018-04-16T08:33:30.329Z,1820
2018-04-16T08:34:30.857Z,1816
2018-04-16T08:35:31.115Z,1804
2018-04-16T08:36:30.984Z,1752
2018-04-16T08:37:31.658Z,1704
2018-04-16T08:38:31.705Z,1680
2018-04-16T08:39:31.247Z,1728
2018-04-16T08:40:31.581Z,1716
2018-04-16T08:41:31.758Z,1696
2018-04-16T08:42:31.634Z,1696
2018-04-16T08:43:32.359Z,1756
2018-04-16T08:44:32.118Z,1892
2018-04-16T08:45:32.414Z,2092
2018-04-16T08:46:32.947Z,2344
2018-04-16T08:47:32.262Z,2572
2018-04-16T08:48:34.504Z,2752
2018-04-16T08:49:33.590Z,2840
2018-04-16T08:50:33.535Z,2828
2018-04-16T08:51:33.751Z,2760
2018-04-16T08:52:33.660Z,2636
2018-04-16T08:53:33.608Z,2564
2018-04-16T08:54:33.440Z,2524
2018-04-16T08:55:33.074Z,2544
2018-04-16T08:56:34.348Z,2668
2018-04-16T08:57:34.486Z,2812
2018-04-16T08:58:34.921Z,2856
2018-04-16T08:59:35.574Z,2912
2018-04-16T09:00:36.870Z,2796
2018-04-16T09:01:37.223Z,2576
2018-04-16T09:02:35.644Z,2444
2018-04-16T09:03:36.220Z,2432
2018-04-16T09:04:36.605Z,2496
2018-04-16T09:05:36.255Z,2624
2018-04-16T09:06:36.107Z,2768
2018-04-16T09:07:35.879Z,2860
2018-04-16T09:08:36.233Z,2908
2018-04-16T09:09:37.505Z,2924
2018-04-16T09:10:36.700Z,2920
2018-04-16T09:11:36.039Z,2912
2018-04-16T09:12:36.621Z,2880
2018-04-16T09:13:36.482Z,2852
2018-04-16T09:14:36.837Z,2812
2018-04-16T09:15:36.349Z,2800
2018-04-16T09:16:37.541Z,2812
2018-04-16T09:17:36.141Z,2856
2018-04-16T09:18:36.812Z,2916
2018-04-16T09:19:37.024Z,3000
2018-04-16T09:20:36.894Z,3100
2018-04-16T09:21:36.639Z,3160
2018-04-16T09:22:37.086Z,3192
2018-04-16T09:23:37.763Z,3216
2018-04-16T09:24:37.681Z,3236
2018-04-16T09:25:37.727Z,3244
2018-04-16T09:26:37.588Z,3252
2018-04-16T09:27:37.571Z,3268
2018-04-16T09:28:38.463Z,3320
2018-04-16T09:29:38.332Z,3416
2018-04-16T09:30:38.892Z,3556
2018-04-16T09:31:38.353Z,3720
2018-04-16T09:32:38.276Z,3872
2018-04-16T09:33:38.820Z,3988
2018-04-16T09:34:39.082Z,4060
2018-04-16T09:35:39.079Z,4088
2018-04-16T09:36:38.925Z,4080
2018-04-16T09:37:39.107Z,4064
2018-04-16T09:38:39.224Z,4088
2018-04-16T09:39:39.409Z,4188
2018-04-16T09:40:39.393Z,4304
2018-04-16T09:41:39.320Z,4312
2018-04-16T09:42:40.473Z,4240
2018-04-16T09:43:39.789Z,4080
2018-04-16T09:44:40.184Z,3840
2018-04-16T09:45:40.515Z,3628
2018-04-16T09:46:40.605Z,3468
2018-04-16T09:47:40.529Z,3360
2018-04-16T09:48:40.692Z,3324
2018-04-16T09:49:41.037Z,3344
2018-04-16T09:50:40.718Z,3376
2018-04-16T09:51:40.362Z,3424
2018-04-16T09:52:40.800Z,3492
2018-04-16T09:53:41.262Z,3576
2018-04-16T09:54:41.058Z,3672
2018-04-16T09:55:41.121Z,3744
2018-04-16T09:56:41.217Z,3780
2018-04-16T09:57:41.020Z,3772
2018-04-16T09:58:41.259Z,3728
2018-04-16T09:59:41.916Z,3648
2018-04-16T10:00:41.942Z,3540
2018-04-16T10:01:41.452Z,3444
2018-04-16T10:02:42.181Z,3372
2018-04-16T10:03:41.488Z,3336
2018-04-16T10:04:42.588Z,3336
2018-04-16T10:05:42.518Z,3348
2018-04-16T10:06:42.210Z,3356
2018-04-16T10:07:42.274Z,3356
2018-04-16T10:08:41.829Z,3340
2018-04-16T10:09:42.093Z,3304
2018-04-16T10:10:42.122Z,3264
2018-04-16T10:11:42.837Z,3240
2018-04-16T10:12:42.670Z,3248
2018-04-16T10:13:43.328Z,3308
2018-04-16T10:14:42.648Z,3416
2018-04-16T10:15:43.593Z,3540
2018-04-16T10:16:43.370Z,3648
2018-04-16T10:17:43.410Z,3712
2018-04-16T10:18:43.389Z,3740
2018-04-16T10:19:43.441Z,3740
2018-04-16T10:20:44.047Z,3732
2018-04-16T10:21:43.864Z,3724
2018-04-16T10:22:44.146Z,3728
2018-04-16T10:23:43.888Z,3740
2018-04-16T10:24:44.376Z,3772
2018-04-16T10:25:44.692Z,3816
2018-04-16T10:26:44.635Z,3872
2018-04-16T10:27:44.913Z,3928
2018-04-16T10:28:44.685Z,3976
2018-04-16T10:29:44.198Z,3984
2018-04-16T10:30:44.848Z,3964
2018-04-16T10:31:45.903Z,3928
2018-04-16T10:32:45.237Z,3920
2018-04-16T10:33:46.195Z,3952
2018-04-16T10:34:45.681Z,4052
2018-04-16T10:35:46.378Z,4188
2018-04-16T10:36:46.118Z,4368
2018-04-16T10:37:45.869Z,4588
2018-04-16T10:38:46.201Z,4848
2018-04-16T10:39:46.238Z,5124
2018-04-16T10:40:45.888Z,5376
2018-04-16T10:41:46.504Z,5556
2018-04-16T10:42:46.689Z,5604
2018-04-16T10:43:47.453Z,5548
2018-04-16T10:44:47.241Z,5472
2018-04-16T10:45:47.055Z,5460
2018-04-16T10:46:47.709Z,5496
2018-04-16T10:47:48.373Z,5576
2018-04-16T10:48:48.214Z,5668
2018-04-16T10:49:48.987Z,5800
2018-04-16T10:50:49.807Z,5928
2018-04-16T10:51:49.444Z,6008
2018-04-16T10:52:49.026Z,6080
2018-04-16T10:53:49.917Z,6080
2018-04-16T10:54:49.744Z,5996
2018-04-16T10:55:49.434Z,5880
2018-04-16T10:56:49.736Z,5772
2018-04-16T10:57:49.131Z,5736
2018-04-16T10:58:48.481Z,5716
2018-04-16T10:59:48.570Z,5700
2018-04-16T11:00:48.564Z,5596
2018-04-16T11:01:48.342Z,5488
2018-04-16T11:02:48.829Z,5436
2018-04-16T11:03:48.499Z,5396
2018-04-16T11:04:48.944Z,5404
2018-04-16T11:05:48.854Z,5420
2018-04-16T11:06:49.109Z,5388
2018-04-16T11:07:48.403Z,5324
2018-04-16T11:08:49.550Z,5244
2018-04-16T11:09:49.114Z,5176
2018-04-16T11:10:49.021Z,5132
2018-04-16T11:11:49.160Z,5088
2018-04-16T11:12:49.314Z,5052
2018-04-16T11:13:49.734Z,5008
2018-04-16T11:14:50.415Z,4944
2018-04-16T11:15:51.452Z,4896
2018-04-16T11:16:50.231Z,4856
2018-04-16T11:17:50.494Z,4832
2018-04-16T11:18:51.307Z,4792
2018-04-16T11:19:50.775Z,4764
2018-04-16T11:20:52.004Z,4716
2018-04-16T11:21:51.748Z,4684
2018-04-16T11:22:52.002Z,4652
2018-04-16T11:23:51.861Z,4624
2018-04-16T11:24:51.614Z,4596
2018-04-16T11:25:52.790Z,4580
2018-04-16T11:26:52.075Z,4568
2018-04-16T11:27:51.799Z,4564
2018-04-16T11:28:52.409Z,4556
2018-04-16T11:29:51.921Z,4540
2018-04-16T11:30:52.710Z,4524
2018-04-16T11:31:52.454Z,4492
2018-04-16T11:32:53.355Z,4452
2018-04-16T11:33:52.922Z,4376
2018-04-16T11:34:52.630Z,4256
2018-04-16T11:35:53.300Z,4040
2018-04-16T11:36:53.209Z,3808
2018-04-16T11:37:53.133Z,3556
2018-04-16T11:38:53.031Z,3332
2018-04-16T11:39:53.695Z,3204
2018-04-16T11:40:53.221Z,3192
2018-04-16T11:41:53.628Z,3300
2018-04-16T11:42:53.581Z,3488
2018-04-16T11:43:53.839Z,3624
2018-04-16T11:44:54.078Z,3624
2018-04-16T11:45:54.374Z,3548
2018-04-16T11:46:54.680Z,3420
2018-04-16T11:47:55.055Z,3332
2018-04-16T11:48:55.179Z,3380
2018-04-16T11:49:55.295Z,3564
2018-04-16T11:50:54.950Z,3748
2018-04-16T11:51:55.387Z,3928
2018-04-16T11:52:56.626Z,4024
2018-04-16T11:53:56.851Z,4008
2018-04-16T11:54:57.363Z,3908
2018-04-16T11:55:56.554Z,3776
2018-04-16T11:56:56.973Z,3580
2018-04-16T11:57:56.796Z,3408
2018-04-16T11:58:56.611Z,3300
2018-04-16T11:59:57.313Z,3248
2018-04-16T12:00:56.712Z,3264
2018-04-16T12:01:56.276Z,3356
2018-04-16T12:02:56.629Z,3444
2018-04-16T12:03:57.123Z,3476
2018-04-16T12:04:56.768Z,3484
2018-04-16T12:05:57.089Z,3512
2018-04-16T12:06:56.830Z,3624
2018-04-16T12:07:58.108Z,3752
2018-04-16T12:08:57.850Z,3796
2018-04-16T12:09:57.852Z,3772
2018-04-16T12:10:58.163Z,3752
2018-04-16T12:11:57.731Z,3764
2018-04-16T12:12:57.683Z,3804
2018-04-16T12:13:57.712Z,3860
2018-04-16T12:14:58.289Z,3956
2018-04-16T12:15:58.798Z,4072
2018-04-16T12:16:58.556Z,4184
2018-04-16T12:17:58.044Z,4244
2018-04-16T12:18:58.256Z,4260
2018-04-16T12:19:58.240Z,4212
2018-04-16T12:20:57.366Z,4092
2018-04-16T12:21:58.193Z,3928
2018-04-16T12:22:58.419Z,3724
2018-04-16T12:23:58.240Z,3484
2018-04-16T12:24:58.291Z,3268
2018-04-16T12:25:57.937Z,3120
2018-04-16T12:26:58.890Z,3072
2018-04-16T12:27:57.735Z,3056
2018-04-16T12:28:57.422Z,3044
2018-04-16T12:29:58.711Z,3024
2018-04-16T12:30:58.873Z,3012
2018-04-16T12:31:58.215Z,3024
2018-04-16T12:32:58.583Z,3044
2018-04-16T12:33:58.689Z,3060
2018-04-16T12:34:58.858Z,3060
2018-04-16T12:35:58.979Z,3032
2018-04-16T12:36:59.320Z,2976
2018-04-16T12:37:58.515Z,2908
2018-04-16T12:38:58.778Z,2844
2018-04-16T12:39:58.449Z,2796
2018-04-16T12:40:58.727Z,2772
2018-04-16T12:41:59.020Z,2780
2018-04-16T12:42:58.929Z,2796
2018-04-16T12:43:59.323Z,2828
2018-04-16T12:44:58.964Z,2856
2018-04-16T12:45:59.525Z,2872
2018-04-16T12:46:59.585Z,2888
2018-04-16T12:47:59.215Z,2908
2018-04-16T12:48:59.144Z,2936
2018-04-16T12:49:59.225Z,2960
2018-04-16T12:50:59.464Z,2976
2018-04-16T12:51:59.495Z,2960
2018-04-16T12:52:59.415Z,2948
2018-04-16T12:53:59.585Z,2924
2018-04-16T12:54:59.718Z,2936
2018-04-16T12:55:59.017Z,3000
2018-04-16T12:56:59.633Z,3064
2018-04-16T12:57:59.227Z,3144
2018-04-16T12:58:58.421Z,3228
2018-04-16T12:59:59.592Z,3248
2018-04-16T13:01:01.512Z,3228
2018-04-16T13:02:01.034Z,3176
2018-04-16T13:02:59.486Z,3092
2018-04-16T13:03:59.613Z,3012
2018-04-16T13:04:59.436Z,2980
2018-04-16T13:06:00.592Z,2996
2018-04-16T13:07:00.826Z,3048
2018-04-16T13:08:00.889Z,3136
2018-04-16T13:09:01.061Z,3264
2018-04-16T13:10:00.115Z,3384
2018-04-16T13:11:00.585Z,3480
2018-04-16T13:12:01.099Z,3536
2018-04-16T13:13:00.993Z,3540
2018-04-16T13:14:01.193Z,3512
2018-04-16T13:15:01.153Z,3448
2018-04-16T13:16:01.063Z,3372
2018-04-16T13:17:00.881Z,3272
2018-04-16T13:18:01.389Z,3176
2018-04-16T13:19:01.050Z,3080
2018-04-16T13:20:00.314Z,2992
2018-04-16T13:21:00.886Z,2904
2018-04-16T13:22:00.684Z,2828
2018-04-16T13:22:59.855Z,2756
2018-04-16T13:24:00.898Z,2696
2018-04-16T13:24:59.758Z,2640
2018-04-16T13:25:59.863Z,2584
2018-04-16T13:27:00.081Z,2524
2018-04-16T13:28:01.571Z,2468
2018-04-16T13:29:00.940Z,2424
2018-04-16T13:30:00.948Z,2396
2018-04-16T13:31:01.875Z,2376
2018-04-16T13:32:01.618Z,2384
2018-04-16T13:33:01.535Z,2392
2018-04-16T13:34:00.873Z,2400
2018-04-16T13:35:01.063Z,2396
2018-04-16T13:36:01.125Z,2384
2018-04-16T13:37:01.551Z,2356
2018-04-16T13:38:01.621Z,2320
2018-04-16T13:39:01.755Z,2272
2018-04-16T13:40:01.693Z,2216
2018-04-16T13:41:01.912Z,2172
2018-04-16T13:42:02.553Z,2128
2018-04-16T13:43:01.627Z,2080
2018-04-16T13:44:02.015Z,2036
2018-04-16T13:45:02.522Z,2004
2018-04-16T13:46:02.052Z,1968
2018-04-16T13:47:03.515Z,1924
2018-04-16T13:48:02.578Z,1892
2018-04-16T13:49:03.604Z,1856
2018-04-16T13:50:04.082Z,1824
2018-04-16T13:51:03.444Z,1800
2018-04-16T13:52:03.878Z,1756
2018-04-16T13:53:04.860Z,1704